createdAt,value
2022-08-24T00:02:16.428Z,0.38
2022-08-24T00:04:50.234Z,0.25
2022-08-24T00:07:26.499Z,0.50
2022-08-24T00:10:05.011Z,0.30
2022-08-24T00:12:40.247Z,0.40
2022-08-24T00:15:13.110Z,0.47
2022-08-24T00:17:42.560Z,0.20
2022-08-24T00:20:15.283Z,0.40
2022-08-24T00:22:53.114Z,0.30
2022-08-24T00:25:26.747Z,0.40
2022-08-24T00:28:01.065Z,0.20
2022-08-24T00:30:35.718Z,0.23
2022-08-24T00:33:06.357Z,0.30
2022-08-24T00:35:36.538Z,0.30
2022-08-24T00:38:10.608Z,0.30
2022-08-24T00:40:44.533Z,0.20
2022-08-24T00:43:15.893Z,0.37
2022-08-24T00:45:55.071Z,0.20
2022-08-24T00:48:37.076Z,0.30
2022-08-24T00:51:24.114Z,0.40
2022-08-24T00:54:07.957Z,0.47
2022-08-24T00:56:50.357Z,0.17
2022-08-24T00:59:34.826Z,0.30
2022-08-24T01:02:19.731Z,0.30
2022-08-24T01:04:54.964Z,0.20
2022-08-24T01:07:29.606Z,0.40
2022-08-24T01:10:05.846Z,0.20
2022-08-24T01:13:00.132Z,0.30
2022-08-24T01:15:48.839Z,0.40
2022-08-24T01:18:41.017Z,0.30
2022-08-24T01:21:22.092Z,0.40
2022-08-24T01:24:08.802Z,0.20
2022-08-24T01:26:49.801Z,0.30
2022-08-24T01:29:29.319Z,0.32
2022-08-24T01:32:02.864Z,0.43
2022-08-24T01:34:32.114Z,0.33
2022-08-24T01:37:30.095Z,0.40
2022-08-24T01:40:03.117Z,0.40
2022-08-24T01:42:39.109Z,0.30
2022-08-24T01:45:09.479Z,0.30
2022-08-24T01:47:46.101Z,0.57
2022-08-24T01:50:16.468Z,0.50
2022-08-24T01:53:05.009Z,0.20
2022-08-24T01:55:49.001Z,0.67
2022-08-24T01:58:21.127Z,0.40
2022-08-24T02:00:59.702Z,0.10
2022-08-24T02:03:30.426Z,0.27
2022-08-24T02:08:39.722Z,0.20
2022-08-24T02:11:21.388Z,0.20
2022-08-24T02:16:34.770Z,0.27
2022-08-24T02:19:08.675Z,0.53
2022-08-24T02:21:45.033Z,0.33
2022-08-24T02:24:23.810Z,0.73
2022-08-24T02:26:53.173Z,0.30
2022-08-24T02:34:46.473Z,0.10
2022-08-24T02:37:24.434Z,0.43
2022-08-24T02:39:55.736Z,0.13
2022-08-24T02:42:32.058Z,0.33
2022-08-24T02:45:03.605Z,0.20
2022-08-24T02:47:39.137Z,0.40
2022-08-24T02:50:18.995Z,0.47
2022-08-24T02:52:53.295Z,0.40
2022-08-24T02:55:42.764Z,0.43
2022-08-24T02:58:18.121Z,0.43
2022-08-24T03:00:51.940Z,0.40
2022-08-24T03:03:26.674Z,0.30
2022-08-24T03:06:03.156Z,0.40
2022-08-24T03:08:35.645Z,0.30
2022-08-24T03:11:09.366Z,0.27
2022-08-24T03:13:46.271Z,0.30
2022-08-24T03:16:25.812Z,0.30
2022-08-24T03:18:54.863Z,0.70
2022-08-24T03:21:29.010Z,0.50
2022-08-24T03:24:06.542Z,0.30
2022-08-24T03:26:47.068Z,0.50
2022-08-24T03:29:17.014Z,0.30
2022-08-24T03:31:55.924Z,1.07
2022-08-24T03:34:44.282Z,0.20
2022-08-24T03:37:19.391Z,0.30
2022-08-24T03:39:51.542Z,0.20
2022-08-24T03:42:38.547Z,0.30
2022-08-24T03:45:21.965Z,0.33
2022-08-24T03:47:52.154Z,0.30
2022-08-24T03:50:30.462Z,0.23
2022-08-24T03:53:11.846Z,0.20
2022-08-24T03:55:43.682Z,0.20
2022-08-24T03:58:19.647Z,0.40
2022-08-24T04:00:50.155Z,0.40
2022-08-24T04:03:24.686Z,0.17
2022-08-24T04:06:08.140Z,0.20
2022-08-24T04:08:40.271Z,0.40
2022-08-24T04:11:21.483Z,0.37
2022-08-24T04:14:00.243Z,0.30
2022-08-24T04:16:36.188Z,0.20
2022-08-24T04:19:26.847Z,0.20
2022-08-24T04:22:08.527Z,0.47
2022-08-24T04:24:40.618Z,0.37
2022-08-24T04:27:20.263Z,0.30
2022-08-24T04:29:54.490Z,0.40
2022-08-24T04:32:30.194Z,0.40
2022-08-24T04:35:14.578Z,0.30
2022-08-24T04:37:51.020Z,0.40
2022-08-24T04:40:29.678Z,0.30
2022-08-24T04:43:07.382Z,0.30
2022-08-24T04:45:45.356Z,0.40
2022-08-24T04:48:16.521Z,0.50
2022-08-24T04:50:51.922Z,0.50
2022-08-24T04:53:26.318Z,0.20
2022-08-24T04:56:01.262Z,0.20
2022-08-24T04:58:41.898Z,0.20
2022-08-24T05:01:20.889Z,0.30
2022-08-24T05:03:56.714Z,0.60
2022-08-24T05:06:39.267Z,0.47
2022-08-24T05:09:11.315Z,0.60
2022-08-24T05:11:42.049Z,0.80
2022-08-24T05:14:31.822Z,1.27
2022-08-24T05:17:03.391Z,1.47
2022-08-24T05:19:39.736Z,1.00
2022-08-24T05:22:18.146Z,0.87
2022-08-24T05:24:54.795Z,0.60
2022-08-24T05:27:41.520Z,0.57
2022-08-24T05:30:16.390Z,0.60
2022-08-24T05:32:49.735Z,0.87
2022-08-24T05:35:21.842Z,1.17
2022-08-24T05:37:57.280Z,1.20
2022-08-24T05:40:42.021Z,1.00
2022-08-24T05:43:23.527Z,1.27
2022-08-24T05:45:56.212Z,1.15
2022-08-24T05:48:30.920Z,0.90
2022-08-24T05:51:37.644Z,1.03
2022-08-24T05:57:05.367Z,0.87
2022-08-24T05:59:50.422Z,1.00
2022-08-24T06:02:27.349Z,1.40
2022-08-24T06:05:02.393Z,0.73
2022-08-24T06:07:42.243Z,1.43
2022-08-24T06:10:35.938Z,0.90
2022-08-24T06:13:07.323Z,0.80
2022-08-24T06:15:41.765Z,0.90
2022-08-24T06:18:17.115Z,0.80
2022-08-24T06:21:01.167Z,0.83
2022-08-24T06:23:42.046Z,1.00
2022-08-24T06:29:06.635Z,1.45
2022-08-24T06:31:59.920Z,1.60
2022-08-24T06:34:32.677Z,0.80
2022-08-24T06:37:11.370Z,0.80
2022-08-24T06:39:55.929Z,0.83
2022-08-24T06:42:37.729Z,1.10
2022-08-24T06:45:24.834Z,0.67
2022-08-24T06:48:04.923Z,0.80
2022-08-24T06:50:41.380Z,1.07
2022-08-24T06:53:24.579Z,1.20
2022-08-24T06:56:01.380Z,1.03
2022-08-24T06:58:41.839Z,1.87
2022-08-24T07:01:24.784Z,1.90
2022-08-24T07:04:06.892Z,1.47
2022-08-24T07:07:02.281Z,2.13
2022-08-24T07:09:33.473Z,1.53
2022-08-24T07:12:05.224Z,1.48
2022-08-24T07:14:38.798Z,1.17
2022-08-24T07:22:46.835Z,1.20
2022-08-24T07:25:21.228Z,1.20
2022-08-24T07:28:03.140Z,1.23
2022-08-24T07:33:25.287Z,0.80
2022-08-24T07:35:57.843Z,0.50
2022-08-24T07:38:34.484Z,0.70
2022-08-24T07:41:38.296Z,0.50
2022-08-24T07:44:08.592Z,0.98
2022-08-24T07:46:42.500Z,0.63
2022-08-24T07:49:33.063Z,0.82
2022-08-24T07:52:11.639Z,0.80
2022-08-24T07:54:42.298Z,1.15
2022-08-24T07:57:19.183Z,0.70
2022-08-24T07:59:56.212Z,0.77
2022-08-24T08:02:30.829Z,0.82
2022-08-24T08:05:08.306Z,0.98
2022-08-24T08:07:52.159Z,0.52
2022-08-24T08:10:29.214Z,0.60
2022-08-24T08:13:00.470Z,0.68
2022-08-24T08:15:31.452Z,0.40
2022-08-24T08:18:28.308Z,0.80
2022-08-24T08:21:03.403Z,0.80
2022-08-24T08:23:54.342Z,0.43
2022-08-24T08:26:47.456Z,0.70
2022-08-24T08:29:45.901Z,0.70
2022-08-24T08:32:20.881Z,1.33
2022-08-24T08:35:02.890Z,1.05
2022-08-24T08:37:38.720Z,1.80
2022-08-24T08:40:22.688Z,0.75
2022-08-24T08:43:15.167Z,0.70
2022-08-24T08:45:56.469Z,0.63
2022-08-24T08:55:53.419Z,0.30
2022-08-24T08:58:53.717Z,0.50
2022-08-24T09:01:50.853Z,0.45
2022-08-24T09:04:59.843Z,0.47
2022-08-24T09:11:35.867Z,0.28
2022-08-24T09:14:16.003Z,0.52
2022-08-24T09:17:15.061Z,0.30
2022-08-24T09:20:26.350Z,0.40
2022-08-24T09:23:34.527Z,0.50
2022-08-24T09:26:34.988Z,0.30
2022-08-24T09:35:06.059Z,0.20
2022-08-24T09:38:00.565Z,0.30
2022-08-24T09:40:44.360Z,0.40
2022-08-24T09:43:51.960Z,0.63
2022-08-24T09:46:53.097Z,0.43
2022-08-24T09:50:21.897Z,0.40
2022-08-24T09:53:38.782Z,0.30
2022-08-24T09:57:09.390Z,0.30
2022-08-24T09:59:54.382Z,0.28
2022-08-24T10:03:10.333Z,0.38
2022-08-24T10:06:21.158Z,0.32
2022-08-24T10:09:24.378Z,0.35
2022-08-24T10:12:27.168Z,0.28
2022-08-24T10:15:03.102Z,0.30
2022-08-24T10:17:56.404Z,0.50
2022-08-24T10:21:19.999Z,0.30
2022-08-24T10:24:14.535Z,0.22
2022-08-24T10:27:29.511Z,0.47
2022-08-24T10:30:41.618Z,0.47
2022-08-24T10:33:37.241Z,0.43
2022-08-24T10:36:48.325Z,0.40
2022-08-24T10:40:02.188Z,0.45
2022-08-24T10:43:36.822Z,0.50
2022-08-24T10:46:46.955Z,0.40
2022-08-24T10:50:35.880Z,0.20
2022-08-24T10:53:22.013Z,0.57
2022-08-24T10:56:19.589Z,0.85
2022-08-24T10:59:13.707Z,0.30
2022-08-24T11:01:44.231Z,0.70
2022-08-24T11:04:28.747Z,0.45
2022-08-24T11:07:29.179Z,0.60
2022-08-24T11:10:05.125Z,0.85
2022-08-24T11:12:50.049Z,0.60
2022-08-24T11:15:26.782Z,0.60
2022-08-24T11:18:07.288Z,0.93
2022-08-24T11:20:48.054Z,0.85
2022-08-24T11:23:31.581Z,1.35
2022-08-24T11:26:06.249Z,0.80
2022-08-24T11:28:46.635Z,0.98
2022-08-24T11:31:35.914Z,1.02
2022-08-24T11:34:15.306Z,0.80
2022-08-24T11:36:49.391Z,0.68
2022-08-24T11:39:44.880Z,0.50
2022-08-24T11:43:05.158Z,0.63
2022-08-24T11:46:06.350Z,0.70
2022-08-24T11:48:53.368Z,0.60
2022-08-24T11:52:02.862Z,0.60
2022-08-24T11:55:00.175Z,0.60
2022-08-24T11:57:48.274Z,0.60
2022-08-24T12:00:30.701Z,0.63
2022-08-24T12:03:29.306Z,0.55
2022-08-24T12:06:55.582Z,0.30
2022-08-24T12:09:57.342Z,0.68
2022-08-24T12:12:52.029Z,0.68
2022-08-24T12:15:35.950Z,0.88
2022-08-24T12:18:32.448Z,0.93
2022-08-24T12:21:02.732Z,0.98
2022-08-24T12:23:55.721Z,1.10
2022-08-24T12:26:36.777Z,0.85
2022-08-24T12:32:22.860Z,0.60
2022-08-24T12:38:32.177Z,0.77
2022-08-24T12:41:19.268Z,0.65
2022-08-24T12:44:12.356Z,0.43
2022-08-24T12:46:43.610Z,0.60
2022-08-24T12:49:48.186Z,0.68
2022-08-24T12:52:31.080Z,0.77
2022-08-24T12:55:25.382Z,0.43
2022-08-24T12:58:34.824Z,0.63
2022-08-24T13:01:10.881Z,0.70
2022-08-24T13:03:46.474Z,0.70
2022-08-24T13:06:41.011Z,0.80
2022-08-24T13:09:23.410Z,0.80
2022-08-24T13:12:08.432Z,0.70
2022-08-24T13:14:41.033Z,0.60
2022-08-24T13:17:15.913Z,0.70
2022-08-24T13:20:23.623Z,0.90
2022-08-24T13:23:29.967Z,0.70
2022-08-24T13:26:29.726Z,0.65
2022-08-24T13:29:08.466Z,0.57
2022-08-24T13:31:45.443Z,0.50
2022-08-24T13:34:22.040Z,0.52
2022-08-24T13:37:30.867Z,0.73
2022-08-24T13:40:12.309Z,0.75
2022-08-24T13:43:08.404Z,0.50
2022-08-24T13:45:52.267Z,0.93
2022-08-24T13:48:57.007Z,0.77
2022-08-24T13:55:09.710Z,0.63
2022-08-24T13:57:58.649Z,0.80
2022-08-24T14:00:44.007Z,0.70
2022-08-24T14:03:31.693Z,0.52
2022-08-24T14:07:02.837Z,0.60
2022-08-24T14:13:28.966Z,0.70
2022-08-24T14:17:19.865Z,0.45
2022-08-24T14:20:14.694Z,0.90
2022-08-24T14:23:36.089Z,0.88
2022-08-24T14:27:02.565Z,0.80
2022-08-24T14:29:37.021Z,0.73
2022-08-24T14:32:12.438Z,0.85
2022-08-24T14:35:29.247Z,0.60
2022-08-24T14:38:14.599Z,0.50
2022-08-24T14:41:10.953Z,0.80
2022-08-24T14:44:28.561Z,0.65
2022-08-24T14:47:28.282Z,0.50
2022-08-24T14:50:27.376Z,1.00
2022-08-24T14:53:24.155Z,0.85
2022-08-24T14:56:51.613Z,0.70
2022-08-24T14:59:49.237Z,0.52
2022-08-24T15:02:44.148Z,0.80
2022-08-24T15:05:44.319Z,0.75
2022-08-24T15:08:36.084Z,0.60
2022-08-24T15:11:32.837Z,0.57
2022-08-24T15:14:19.799Z,0.70
2022-08-24T15:17:13.625Z,0.50
2022-08-24T15:20:31.369Z,0.63
2022-08-24T15:23:33.072Z,0.68
2022-08-24T15:26:19.519Z,0.63
2022-08-24T15:29:01.690Z,0.80
2022-08-24T15:31:43.062Z,0.55
2022-08-24T15:34:13.781Z,0.47
2022-08-24T15:36:51.852Z,0.70
2022-08-24T15:39:32.644Z,0.63
2022-08-24T15:42:13.384Z,0.60
2022-08-24T15:44:55.046Z,0.63
2022-08-24T15:47:39.177Z,0.70
2022-08-24T15:50:37.178Z,0.52
2022-08-24T15:53:29.410Z,0.50
2022-08-24T15:56:01.969Z,0.60
2022-08-24T15:58:46.150Z,0.77
2022-08-24T16:01:36.970Z,0.80
2022-08-24T16:04:17.181Z,0.70
2022-08-24T16:06:58.295Z,0.70
2022-08-24T16:09:35.505Z,0.70
2022-08-24T16:12:33.876Z,0.60
2022-08-24T16:15:28.007Z,0.70
2022-08-24T16:18:02.491Z,0.95
2022-08-24T16:20:36.495Z,0.70
2022-08-24T16:23:34.431Z,0.90
2022-08-24T16:26:37.552Z,0.40
2022-08-24T16:29:13.733Z,0.63
2022-08-24T16:31:55.051Z,0.60
2022-08-24T16:34:47.607Z,0.70
2022-08-24T16:37:24.454Z,0.52
2022-08-24T16:39:55.684Z,1.05
2022-08-24T16:42:37.242Z,0.80
2022-08-24T16:45:11.899Z,0.70
2022-08-24T16:47:46.479Z,0.63
2022-08-24T16:50:27.519Z,0.70
2022-08-24T16:52:59.648Z,0.68
2022-08-24T16:55:32.265Z,0.65
2022-08-24T16:58:04.757Z,0.75
2022-08-24T17:00:35.383Z,0.82
2022-08-24T17:03:04.664Z,0.63
2022-08-24T17:05:41.541Z,0.63
2022-08-24T17:08:18.667Z,0.90
2022-08-24T17:10:50.416Z,0.50
2022-08-24T17:13:46.346Z,0.70
2022-08-24T17:16:25.223Z,0.98
2022-08-24T17:18:57.536Z,0.60
2022-08-24T17:21:29.700Z,0.70
2022-08-24T17:23:58.665Z,0.77
2022-08-24T17:26:48.572Z,0.63
2022-08-24T17:29:28.899Z,0.80
2022-08-24T17:32:01.362Z,1.08
2022-08-24T17:34:35.205Z,0.80
2022-08-24T17:37:07.373Z,0.90
2022-08-24T17:39:41.487Z,0.73
2022-08-24T17:42:47.241Z,0.60
2022-08-24T17:45:25.784Z,0.98
2022-08-24T17:48:06.219Z,0.70
2022-08-24T17:50:43.411Z,0.77
2022-08-24T17:53:15.249Z,0.60
2022-08-24T17:55:57.745Z,0.95
2022-08-24T17:58:28.591Z,0.90
2022-08-24T18:01:06.663Z,0.80
2022-08-24T18:03:38.505Z,0.85
2022-08-24T18:06:10.033Z,0.60
2022-08-24T18:08:38.467Z,1.00
2022-08-24T18:11:12.794Z,0.77
2022-08-24T18:13:43.993Z,1.05
2022-08-24T18:16:21.390Z,0.80
2022-08-24T18:18:55.757Z,1.00
2022-08-24T18:21:27.525Z,1.00
2022-08-24T18:24:06.149Z,1.15
2022-08-24T18:26:47.951Z,0.88
2022-08-24T18:29:26.879Z,0.70
2022-08-24T18:32:06.631Z,0.77
2022-08-24T18:34:38.564Z,0.95
2022-08-24T18:37:16.143Z,0.90
2022-08-24T18:39:48.412Z,1.05
2022-08-24T18:42:20.048Z,1.10
2022-08-24T18:45:04.350Z,0.95
2022-08-24T18:47:39.707Z,1.00
2022-08-24T18:50:13.001Z,0.80
2022-08-24T18:52:51.932Z,0.90
2022-08-24T18:55:23.480Z,0.75
2022-08-24T18:57:53.095Z,0.80
2022-08-24T19:00:24.562Z,0.95
2022-08-24T19:02:58.830Z,0.88
2022-08-24T19:05:31.195Z,1.02
2022-08-24T19:08:00.966Z,0.88
2022-08-24T19:10:40.227Z,0.98
2022-08-24T19:13:23.382Z,0.80
2022-08-24T19:15:57.197Z,1.00
2022-08-24T19:18:29.804Z,1.00
2022-08-24T19:21:15.116Z,1.30
2022-08-24T19:23:47.855Z,1.00
2022-08-24T19:26:33.095Z,0.93
2022-08-24T19:29:01.270Z,1.60
2022-08-24T19:31:33.057Z,0.88
2022-08-24T19:34:03.771Z,1.15
2022-08-24T19:36:34.846Z,1.08
2022-08-24T19:39:08.602Z,0.80
2022-08-24T19:41:42.901Z,0.85
2022-08-24T19:44:32.648Z,1.20
2022-08-24T19:47:09.866Z,0.90
2022-08-24T19:49:44.258Z,1.15
2022-08-24T19:52:14.792Z,1.13
2022-08-24T19:54:47.250Z,1.17
2022-08-24T19:57:44.026Z,1.20
2022-08-24T20:00:32.429Z,1.02
2022-08-24T20:03:08.767Z,0.80
2022-08-24T20:05:42.376Z,1.33
2022-08-24T20:08:17.180Z,1.30
2022-08-24T20:10:51.128Z,0.90
2022-08-24T20:13:22.444Z,1.38
2022-08-24T20:15:56.584Z,0.93
2022-08-24T20:18:36.073Z,1.10
2022-08-24T20:21:07.345Z,1.15
2022-08-24T20:23:40.427Z,1.10
2022-08-24T20:26:16.595Z,0.85
2022-08-24T20:28:57.887Z,1.17
2022-08-24T20:31:35.617Z,1.05
2022-08-24T20:34:14.778Z,0.80
2022-08-24T20:36:54.321Z,1.20
2022-08-24T20:39:26.513Z,0.98
2022-08-24T20:41:58.808Z,1.10
2022-08-24T20:44:28.895Z,1.20
2022-08-24T20:47:02.489Z,1.40
2022-08-24T20:49:42.142Z,1.40
2022-08-24T20:52:12.040Z,0.98
2022-08-24T20:54:48.455Z,0.98
2022-08-24T20:57:30.320Z,0.93
2022-08-24T21:00:01.333Z,1.15
2022-08-24T21:02:45.047Z,0.90
2022-08-24T21:05:27.759Z,1.00
2022-08-24T21:08:07.455Z,1.15
2022-08-24T21:10:48.082Z,1.40
2022-08-24T21:13:23.779Z,1.25
2022-08-24T21:15:54.372Z,1.17
2022-08-24T21:18:24.531Z,1.52
2022-08-24T21:21:03.915Z,0.88
2022-08-24T21:23:43.795Z,1.10
2022-08-24T21:26:18.088Z,0.80
2022-08-24T21:28:52.237Z,1.00
2022-08-24T21:31:27.963Z,1.02
2022-08-24T21:34:15.883Z,0.80
2022-08-24T21:36:49.728Z,1.52
2022-08-24T21:39:26.273Z,1.17
2022-08-24T21:41:57.728Z,1.75
2022-08-24T21:44:40.835Z,1.48
2022-08-24T21:47:13.034Z,1.20
2022-08-24T21:49:45.201Z,0.90
2022-08-24T21:52:13.464Z,1.27
2022-08-24T21:54:47.186Z,1.25
2022-08-24T21:57:23.215Z,1.10
2022-08-24T22:00:05.002Z,1.23
2022-08-24T22:02:39.107Z,1.30
2022-08-24T22:05:13.365Z,1.08
2022-08-24T22:07:43.877Z,0.95
2022-08-24T22:10:22.231Z,1.20
2022-08-24T22:12:54.338Z,1.00
2022-08-24T22:15:28.670Z,1.50
2022-08-24T22:20:28.482Z,1.10
2022-08-24T22:23:12.234Z,1.52
2022-08-24T22:25:44.341Z,1.52
2022-08-24T22:28:19.791Z,1.45
2022-08-24T22:30:54.483Z,1.00
2022-08-24T22:33:28.975Z,1.27
2022-08-24T22:36:06.460Z,1.30
2022-08-24T22:38:44.465Z,1.63
2022-08-24T22:44:16.478Z,1.40
2022-08-24T22:46:48.315Z,1.33
2022-08-24T22:49:21.061Z,1.58
2022-08-24T22:51:52.364Z,1.38
2022-08-24T22:54:26.736Z,1.70
2022-08-24T22:57:00.825Z,1.33
2022-08-24T22:59:42.841Z,1.17
2022-08-24T23:02:18.137Z,1.15
2022-08-24T23:04:59.490Z,1.73
2022-08-24T23:07:32.138Z,1.17
2022-08-24T23:10:05.225Z,1.52
2022-08-24T23:12:35.433Z,1.73
2022-08-24T23:15:07.437Z,1.67
2022-08-24T23:17:45.519Z,1.17
2022-08-24T23:20:15.977Z,1.50
2022-08-24T23:23:02.240Z,1.50
2022-08-24T23:25:30.139Z,1.55
2022-08-24T23:28:08.870Z,1.17
2022-08-24T23:30:38.084Z,1.77
2022-08-24T23:33:07.238Z,1.15
2022-08-24T23:35:44.239Z,1.20
2022-08-24T23:38:17.821Z,1.10
2022-08-24T23:40:52.214Z,1.48
2022-08-24T23:43:23.713Z,1.45
2022-08-24T23:48:39.965Z,1.27
2022-08-24T23:51:24.034Z,1.23
2022-08-24T23:53:58.191Z,1.55
2022-08-24T23:56:41.215Z,1.23
2022-08-24T23:59:14.455Z,1.38
